Time;durP1;ratioP1;P1;durP2;ratioP2;P2;SDS_P1;SDS_P2;PMS_P1;PMS_P2;Temp;Humidity;BMP_temperature;BMP_pressure;BME280_temperature;BME280_humidity;BME280_pressure;Samples;Min_cycle;Max_cycle;Signal;HPM_P1;HPM_P2
2021/03/06 00:00:41;;;;;;;12.13;6.25;;;1.70;71.50;;;;;;5055406;28;20032;-77
2021/03/06 00:03:06;;;;;;;12.43;6.53;;;1.60;71.50;;;;;;5054386;28;20351;-77
2021/03/06 00:05:32;;;;;;;15.98;6.85;;;1.60;71.60;;;;;;5037774;28;20025;-77
2021/03/06 00:07:58;;;;;;;13.23;7.10;;;1.60;71.90;;;;;;5054408;28;20056;-77
2021/03/06 00:10:23;;;;;;;16.58;6.43;;;1.50;72.00;;;;;;5037570;28;20028;-77
2021/03/06 00:12:50;;;;;;;13.48;5.95;;;1.50;72.10;;;;;;5054320;28;20031;-77
2021/03/06 00:15:26;;;;;;;13.57;5.95;;;1.50;72.90;;;;;;5055416;28;20032;-77
2021/03/06 00:17:52;;;;;;;11.02;5.53;;;1.50;72.30;;;;;;5054416;28;20021;-77
2021/03/06 00:20:18;;;;;;;10.52;5.50;;;1.50;72.30;;;;;;5021205;28;20436;-77
2021/03/06 00:22:45;;;;;;;9.85;5.20;;;1.50;72.30;;;;;;5054344;28;20063;-76
2021/03/06 00:25:13;;;;;;;11.10;5.15;;;1.50;72.30;;;;;;5053861;28;20017;-77
2021/03/06 00:27:39;;;;;;;9.52;4.97;;;1.40;72.40;;;;;;5053973;28;20041;-76
2021/03/06 00:30:09;;;;;;;11.60;5.10;;;1.40;72.30;;;;;;5054183;28;20425;-77
2021/03/06 00:32:35;;;;;;;12.32;5.38;;;1.40;72.40;;;;;;5055282;28;20025;-77
2021/03/06 00:35:00;;;;;;;10.30;5.00;;;1.40;72.40;;;;;;5053841;28;20028;-77
2021/03/06 00:37:26;;;;;;;9.93;4.70;;;1.40;72.50;;;;;;5037430;28;20026;-77
2021/03/06 00:39:52;;;;;;;9.00;4.78;;;1.30;72.50;;;;;;5053509;28;20033;-78
2021/03/06 00:42:17;;;;;;;13.57;4.85;;;1.30;72.50;;;;;;5054012;28;20040;-79
2021/03/06 00:44:43;;;;;;;8.38;4.65;;;1.30;72.60;;;;;;5053801;28;20029;-79
2021/03/06 00:47:09;;;;;;;11.02;5.18;;;1.30;72.60;;;;;;5020470;28;20553;-78
2021/03/06 00:49:35;;;;;;;7.97;4.38;;;1.30;72.70;;;;;;5053567;28;20082;-79
2021/03/06 00:52:00;;;;;;;9.85;4.75;;;1.30;72.80;;;;;;5036713;28;20378;-78
2021/03/06 00:54:26;;;;;;;8.93;4.72;;;1.20;72.90;;;;;;5037189;28;20036;-78
2021/03/06 00:56:52;;;;;;;8.70;4.70;;;1.20;73.20;;;;;;5053079;28;20559;-79
2021/03/06 00:59:17;;;;;;;8.77;4.15;;;1.20;73.30;;;;;;5020731;28;20039;-78
2021/03/06 01:01:43;;;;;;;7.70;4.13;;;1.20;73.40;;;;;;5053407;28;20107;-78
2021/03/06 01:04:09;;;;;;;8.60;3.90;;;1.20;73.40;;;;;;5036950;28;20500;-79
2021/03/06 01:06:34;;;;;;;9.77;4.55;;;1.20;73.40;;;;;;5053324;28;20079;-78
2021/03/06 01:09:00;;;;;;;9.02;4.22;;;1.10;73.40;;;;;;5054666;28;20032;-79
2021/03/06 01:11:26;;;;;;;9.88;4.70;;;1.10;73.40;;;;;;5036311;28;20425;-78
2021/03/06 01:13:52;;;;;;;7.68;4.60;;;1.10;73.40;;;;;;5053144;28;20036;-79
2021/03/06 01:16:18;;;;;;;12.00;4.45;;;1.10;73.50;;;;;;5052975;28;20024;-78
2021/03/06 01:18:43;;;;;;;10.13;4.32;;;1.00;74.20;;;;;;5036295;28;20025;-79
2021/03/06 01:21:09;;;;;;;7.88;4.18;;;1.00;73.60;;;;;;5052999;28;20044;-79
2021/03/06 01:23:35;;;;;;;9.93;3.80;;;1.00;73.70;;;;;;5036066;28;20119;-78
2021/03/06 01:26:01;;;;;;;8.18;4.28;;;1.00;73.80;;;;;;5035897;28;20025;-78
2021/03/06 01:28:26;;;;;;;5.95;4.10;;;1.00;73.90;;;;;;5052457;28;20498;-78
2021/03/06 01:30:52;;;;;;;6.57;4.68;;;0.90;74.00;;;;;;5052516;28;20029;-78
2021/03/06 01:33:18;;;;;;;9.90;5.05;;;0.90;74.10;;;;;;5035924;28;20116;-79
2021/03/06 01:35:43;;;;;;;10.05;4.68;;;0.90;74.30;;;;;;5053094;28;20071;-78
2021/03/06 01:38:09;;;;;;;8.57;4.60;;;0.90;74.40;;;;;;5035822;28;20544;-78
2021/03/06 01:40:36;;;;;;;13.15;5.20;;;0.80;74.40;;;;;;5052010;28;20102;-78
2021/03/06 01:43:08;;;;;;;9.00;5.30;;;0.90;74.50;;;;;;5019464;28;20110;-78
2021/03/06 01:45:34;;;;;;;14.07;6.10;;;0.90;74.50;;;;;;5054106;28;20024;-78
2021/03/06 01:48:01;;;;;;;17.38;6.80;;;0.90;74.50;;;;;;5053762;28;20087;-78
2021/03/06 01:50:33;;;;;;;11.05;5.63;;;0.90;74.40;;;;;;5036068;28;20033;-78
2021/03/06 01:53:03;;;;;;;11.30;5.57;;;0.90;74.50;;;;;;5052445;28;20028;-78
2021/03/06 01:55:30;;;;;;;17.25;6.97;;;0.90;74.60;;;;;;5053704;28;20068;-78
2021/03/06 01:57:57;;;;;;;31.25;9.30;;;0.90;74.60;;;;;;5053697;28;20029;-78
2021/03/06 02:00:24;;;;;;;26.25;8.55;;;0.90;74.60;;;;;;5035790;28;20028;-78
2021/03/06 02:02:50;;;;;;;22.25;7.18;;;0.90;74.60;;;;;;5035258;28;20408;-79
2021/03/06 02:05:17;;;;;;;18.20;6.35;;;0.90;74.60;;;;;;5051966;28;20474;-78
2021/03/06 02:07:44;;;;;;;19.85;6.45;;;0.80;74.80;;;;;;5035801;28;20028;-78
2021/03/06 02:10:12;;;;;;;19.77;6.75;;;0.80;75.00;;;;;;5035431;28;20111;-78
2021/03/06 02:12:52;;;;;;;36.72;14.65;;;0.70;75.10;;;;;;5052071;28;20538;-78
2021/03/06 02:15:43;;;;;;;38.80;15.50;;;0.70;75.20;;;;;;5052112;28;20028;-78
2021/03/06 02:18:18;;;;;;;26.77;13.15;;;0.70;75.40;;;;;;5052196;28;20025;-78
2021/03/06 02:21:07;;;;;;;24.65;10.60;;;0.70;75.40;;;;;;5053456;28;20033;-78
2021/03/06 02:23:57;;;;;;;15.10;7.95;;;0.70;75.70;;;;;;5032643;28;20033;-78
2021/03/06 02:26:37;;;;;;;18.65;7.30;;;0.60;75.50;;;;;;5052082;28;20056;-78
2021/03/06 02:29:37;;;;;;;14.73;6.40;;;0.60;75.50;;;;;;5052006;28;20051;-78
2021/03/06 02:32:17;;;;;;;11.85;6.60;;;0.60;75.70;;;;;;5053028;28;20029;-78
2021/03/06 02:35:03;;;;;;;9.85;5.43;;;0.60;75.80;;;;;;5053117;28;20051;-78
2021/03/06 02:37:33;;;;;;;13.85;5.60;;;0.50;75.90;;;;;;5051860;28;20033;-78
2021/03/06 02:39:59;;;;;;;;;;;0.60;75.90;;;;;;5051944;28;20033;-78
2021/03/06 02:42:28;;;;;;;12.93;5.30;;;0.60;75.70;;;;;;5051887;28;19951;-78
2021/03/06 02:44:56;;;;;;;7.38;4.43;;;0.60;75.90;;;;;;5051969;28;20386;-79
2021/03/06 02:47:22;;;;;;;5.20;3.88;;;0.50;75.90;;;;;;5051575;28;20040;-78
2021/03/06 02:49:53;;;;;;;7.32;4.60;;;0.50;75.90;;;;;;5051740;28;20036;-78
2021/03/06 02:52:19;;;;;;;9.18;4.97;;;0.50;76.00;;;;;;5051740;28;20047;-78
2021/03/06 02:54:46;;;;;;;8.23;4.47;;;0.50;76.10;;;;;;5035144;28;20036;-77
2021/03/06 02:57:31;;;;;;;11.32;4.60;;;0.40;76.30;;;;;;5051634;28;20040;-77
2021/03/06 03:00:13;;;;;;;8.82;4.60;;;0.40;76.50;;;;;;5032888;28;20028;-77
2021/03/06 03:02:47;;;;;;;7.90;4.50;;;0.40;76.70;;;;;;5049717;28;20025;-77
2021/03/06 03:05:36;;;;;;;9.20;4.45;;;0.40;76.70;;;;;;5051081;28;20044;-77
2021/03/06 03:08:10;;;;;;;7.78;4.75;;;0.40;77.00;;;;;;5050860;28;20024;-77
2021/03/06 03:10:42;;;;;;;8.95;4.30;;;0.30;76.80;;;;;;5050655;28;20025;-77
2021/03/06 03:13:23;;;;;;;7.70;4.47;;;0.30;76.90;;;;;;5050430;28;20025;-77
2021/03/06 03:16:10;;;;;;;7.97;4.28;;;0.30;77.00;;;;;;5053401;28;20053;-77
2021/03/06 03:18:43;;;;;;;8.30;4.75;;;0.30;77.00;;;;;;5055459;28;20021;-78
2021/03/06 03:21:12;;;;;;;7.53;4.00;;;0.30;77.00;;;;;;5056475;28;20083;-78
2021/03/06 03:23:44;;;;;;;9.52;4.65;;;0.30;77.10;;;;;;5056223;28;20100;-78
2021/03/06 03:26:12;;;;;;;10.27;4.38;;;0.30;77.20;;;;;;5056668;28;20033;-78
2021/03/06 03:28:41;;;;;;;10.48;4.50;;;0.20;77.20;;;;;;5055137;28;20024;-78
2021/03/06 03:31:09;;;;;;;8.13;4.20;;;0.20;77.30;;;;;;5055186;28;20126;-78
2021/03/06 03:33:36;;;;;;;7.55;4.60;;;0.20;77.30;;;;;;5021931;28;20384;-78
2021/03/06 03:36:04;;;;;;;8.52;4.63;;;0.20;77.40;;;;;;5038503;28;20037;-78
2021/03/06 03:38:31;;;;;;;8.95;4.65;;;0.20;77.40;;;;;;5055264;28;20017;-78
2021/03/06 03:40:59;;;;;;;7.03;4.22;;;0.20;77.50;;;;;;5055920;28;20079;-78
2021/03/06 03:43:26;;;;;;;7.00;4.20;;;0.10;77.50;;;;;;5028721;28;20496;-78
2021/03/06 03:45:53;;;;;;;7.28;4.40;;;0.20;77.60;;;;;;5038258;28;20025;-78
2021/03/06 03:48:20;;;;;;;6.85;4.35;;;0.10;77.50;;;;;;5054959;28;20029;-78
2021/03/06 03:50:46;;;;;;;8.60;4.72;;;0.20;77.70;;;;;;5054901;28;20095;-79
2021/03/06 03:53:15;;;;;;;7.60;4.32;;;0.10;77.60;;;;;;5055056;28;20444;-78
2021/03/06 03:55:42;;;;;;;8.98;4.97;;;0.10;77.70;;;;;;5054721;28;20029;-78
2021/03/06 03:58:11;;;;;;;11.48;5.00;;;0.10;77.70;;;;;;5055892;28;20021;-78
2021/03/06 04:00:37;;;;;;;14.85;5.57;;;0.10;77.90;;;;;;5054739;28;20373;-78
2021/03/06 04:03:04;;;;;;;6.50;4.35;;;0.10;77.90;;;;;;5038452;28;20035;-78
2021/03/06 04:05:30;;;;;;;10.00;5.43;;;0.10;78.00;;;;;;5054677;28;20111;-78
2021/03/06 04:07:56;;;;;;;8.38;5.03;;;0.10;78.10;;;;;;5054704;28;20043;-78
2021/03/06 04:10:23;;;;;;;9.90;4.70;;;0.00;78.10;;;;;;5021235;28;20032;-78
2021/03/06 04:12:51;;;;;;;10.50;4.57;;;0.00;78.10;;;;;;5054759;28;20033;-78
2021/03/06 04:15:19;;;;;;;13.43;4.97;;;0.00;78.20;;;;;;5054319;28;20079;-78
2021/03/06 04:17:45;;;;;;;8.52;4.93;;;-0.10;78.20;;;;;;5038404;28;20119;-78
2021/03/06 04:20:13;;;;;;;8.68;4.68;;;-0.10;78.40;;;;;;5021186;28;20025;-78
2021/03/06 04:22:39;;;;;;;8.85;4.75;;;-0.10;78.50;;;;;;5054075;28;20508;-78
2021/03/06 04:25:06;;;;;;;7.30;4.43;;;-0.10;78.60;;;;;;5037919;28;20033;-78
2021/03/06 04:27:33;;;;;;;7.15;4.40;;;-0.10;78.70;;;;;;5053505;28;20025;-78
2021/03/06 04:29:58;;;;;;;14.52;4.80;;;-0.10;78.60;;;;;;5037505;28;20032;-78
2021/03/06 04:32:24;;;;;;;9.77;4.93;;;-0.10;78.60;;;;;;5054026;28;20028;-78
2021/03/06 04:34:50;;;;;;;14.70;4.85;;;-0.10;78.60;;;;;;5055284;28;20032;-77
2021/03/06 04:37:16;;;;;;;10.85;4.45;;;-0.10;78.60;;;;;;5053860;28;20413;-78
2021/03/06 04:39:41;;;;;;;6.88;4.78;;;-0.10;78.70;;;;;;5037403;28;20087;-77
2021/03/06 04:42:07;;;;;;;10.82;5.28;;;-0.10;78.70;;;;;;5053831;28;20017;-77
2021/03/06 04:44:33;;;;;;;7.40;5.00;;;-0.10;78.80;;;;;;5037218;28;20040;-77
2021/03/06 04:46:59;;;;;;;7.85;4.88;;;-0.10;78.90;;;;;;5037202;28;20124;-76
2021/03/06 04:49:25;;;;;;;8.27;4.80;;;-0.10;78.90;;;;;;5053805;28;20036;-77
2021/03/06 04:51:51;;;;;;;8.82;4.78;;;-0.20;78.90;;;;;;5044021;28;20037;-76
2021/03/06 04:54:17;;;;;;;11.50;5.30;;;-0.20;78.90;;;;;;5073836;28;20095;-77
2021/03/06 04:56:43;;;;;;;9.70;5.30;;;-0.20;78.90;;;;;;5056789;28;20044;-76
2021/03/06 04:59:08;;;;;;;10.60;4.95;;;-0.20;78.90;;;;;;5027567;28;21641;-77
2021/03/06 05:01:34;;;;;;;9.05;5.25;;;-0.20;78.90;;;;;;5036338;28;20037;-77
2021/03/06 05:04:00;;;;;;;7.18;5.32;;;-0.20;78.90;;;;;;5053107;28;20025;-77
2021/03/06 05:06:25;;;;;;;6.75;4.90;;;-0.20;78.90;;;;;;5035767;28;20025;-77
2021/03/06 05:08:51;;;;;;;8.00;5.00;;;-0.20;79.00;;;;;;5036911;28;20086;-77
2021/03/06 05:11:16;;;;;;;7.82;4.97;;;-0.20;79.00;;;;;;5036640;28;20116;-77
2021/03/06 05:13:42;;;;;;;8.57;5.45;;;-0.20;79.10;;;;;;5037295;28;20102;-77
2021/03/06 05:16:08;;;;;;;9.65;5.55;;;-0.20;79.10;;;;;;5020128;28;20119;-77
2021/03/06 05:18:33;;;;;;;9.93;5.10;;;-0.20;79.10;;;;;;5036946;28;20032;-77
2021/03/06 05:20:59;;;;;;;10.60;4.90;;;-0.20;79.20;;;;;;5053117;28;20048;-76
2021/03/06 05:23:26;;;;;;;11.57;5.63;;;-0.30;79.20;;;;;;5053344;28;20029;-76
2021/03/06 05:25:52;;;;;;;8.75;4.93;;;-0.30;79.30;;;;;;5054551;28;20028;-76
2021/03/06 05:28:22;;;;;;;9.82;5.22;;;-0.30;79.50;;;;;;5054556;28;20025;-76
2021/03/06 05:30:47;;;;;;;;;;;-0.30;79.60;;;;;;5054726;28;20481;-76
2021/03/06 05:33:14;;;;;;;13.77;5.00;;;-0.30;79.30;;;;;;5069762;28;19950;-76
2021/03/06 05:35:40;;;;;;;8.88;5.05;;;-0.40;80.10;;;;;;5036270;28;20041;-76
2021/03/06 05:38:06;;;;;;;11.25;5.30;;;-0.40;79.60;;;;;;5036451;28;20055;-76
2021/03/06 05:40:37;;;;;;;9.55;5.43;;;-0.40;79.60;;;;;;5052806;28;20045;-76
2021/03/06 05:43:03;;;;;;;8.30;5.05;;;-0.40;79.70;;;;;;5052976;28;20435;-76
2021/03/06 05:45:29;;;;;;;13.32;5.78;;;-0.40;79.70;;;;;;5052343;28;20025;-76
2021/03/06 05:47:57;;;;;;;8.43;5.15;;;-0.40;79.70;;;;;;5036193;28;20029;-76
2021/03/06 05:50:23;;;;;;;16.33;5.70;;;-0.50;79.60;;;;;;5051401;28;20390;-76
2021/03/06 05:52:51;;;;;;;9.55;6.00;;;-0.50;79.70;;;;;;5052266;28;20032;-76
2021/03/06 05:55:18;;;;;;;11.57;5.75;;;-0.50;79.70;;;;;;5053326;28;20461;-76
2021/03/06 05:57:44;;;;;;;9.70;5.78;;;-0.50;79.80;;;;;;5052541;28;20057;-77
2021/03/06 06:00:14;;;;;;;8.63;5.10;;;-0.50;79.80;;;;;;5052021;28;20381;-77
2021/03/06 06:02:41;;;;;;;10.82;5.80;;;-0.50;79.80;;;;;;5052816;28;20116;-77
2021/03/06 06:05:07;;;;;;;10.77;5.25;;;-0.50;79.80;;;;;;5052776;28;20025;-77
2021/03/06 06:07:35;;;;;;;14.57;5.88;;;-0.50;79.80;;;;;;5054156;28;20059;-76
2021/03/06 06:10:01;;;;;;;10.65;5.07;;;-0.50;79.70;;;;;;5035861;28;20025;-76
2021/03/06 06:12:27;;;;;;;12.07;6.13;;;-0.50;79.70;;;;;;5052308;28;20048;-76
2021/03/06 06:14:52;;;;;;;10.70;6.10;;;-0.50;79.80;;;;;;5035874;28;20436;-77
2021/03/06 06:17:18;;;;;;;10.77;5.88;;;-0.50;79.90;;;;;;5051964;28;20029;-76
2021/03/06 06:19:44;;;;;;;10.30;5.70;;;-0.50;80.00;;;;;;5052154;28;20117;-76
2021/03/06 06:22:22;;;;;;;9.93;5.47;;;-0.50;80.10;;;;;;5035524;28;20367;-76
2021/03/06 06:24:50;;;;;;;15.82;5.65;;;-0.50;80.10;;;;;;5033508;28;20026;-76
2021/03/06 06:27:34;;;;;;;11.30;6.18;;;-0.50;80.10;;;;;;5033685;28;20029;-76
2021/03/06 06:30:10;;;;;;;13.73;5.63;;;-0.40;80.20;;;;;;5040362;28;20036;-76
2021/03/06 06:32:45;;;;;;;11.15;5.80;;;-0.40;80.10;;;;;;5051933;28;20107;-77
2021/03/06 06:35:13;;;;;;;11.50;6.10;;;-0.40;80.10;;;;;;5051924;28;20029;-77
2021/03/06 06:37:40;;;;;;;14.45;5.90;;;-0.40;80.10;;;;;;5053491;28;20485;-76
2021/03/06 06:40:17;;;;;;;12.23;6.18;;;-0.40;80.20;;;;;;5052688;28;20041;-77
2021/03/06 06:42:43;;;;;;;15.20;6.53;;;-0.40;80.50;;;;;;5051934;28;20136;-76
2021/03/06 06:45:09;;;;;;;12.77;5.95;;;-0.40;80.50;;;;;;5052776;28;20406;-76
2021/03/06 06:47:46;;;;;;;12.38;6.00;;;-0.40;80.60;;;;;;5051493;28;20516;-77
2021/03/06 06:50:13;;;;;;;12.40;6.20;;;-0.40;80.70;;;;;;5052475;28;20108;-77
2021/03/06 06:52:41;;;;;;;12.70;6.03;;;-0.40;80.60;;;;;;5035433;28;20033;-77
2021/03/06 06:55:10;;;;;;;16.23;6.38;;;-0.30;81.40;;;;;;5051732;28;20029;-77
2021/03/06 06:57:50;;;;;;;11.43;5.97;;;-0.20;80.60;;;;;;5034979;28;20111;-76
2021/03/06 07:00:16;;;;;;;11.02;6.60;;;-0.10;80.40;;;;;;5035205;28;20259;-76
2021/03/06 07:02:52;;;;;;;14.00;6.47;;;0.00;80.20;;;;;;5051840;28;20022;-77
2021/03/06 07:05:26;;;;;;;13.43;6.18;;;0.00;80.20;;;;;;5051333;28;20030;-76
2021/03/06 07:07:52;;;;;;;10.68;6.57;;;0.10;80.50;;;;;;5051564;28;20541;-76
2021/03/06 07:10:18;;;;;;;12.90;6.78;;;0.10;80.30;;;;;;5034759;28;20163;-76
2021/03/06 07:12:45;;;;;;;14.38;6.97;;;0.10;80.30;;;;;;5051526;28;20017;-76
2021/03/06 07:15:23;;;;;;;11.18;6.32;;;0.20;80.30;;;;;;5051443;28;20024;-76
2021/03/06 07:17:53;;;;;;;14.40;6.22;;;0.20;80.40;;;;;;5035162;28;20615;-77
2021/03/06 07:20:22;;;;;;;10.80;6.20;;;0.30;80.30;;;;;;5051113;28;20017;-76
2021/03/06 07:22:55;;;;;;;12.23;6.65;;;0.30;80.20;;;;;;5051519;28;20036;-75
2021/03/06 07:25:22;;;;;;;17.98;6.68;;;0.30;80.80;;;;;;5051094;28;20025;-75
2021/03/06 07:27:48;;;;;;;11.32;7.20;;;0.40;80.30;;;;;;5051528;28;20056;-76
2021/03/06 07:30:16;;;;;;;12.02;7.82;;;0.40;80.90;;;;;;5051496;28;20033;-76
2021/03/06 07:32:44;;;;;;;24.83;10.52;;;0.50;80.40;;;;;;5050270;28;20021;-76
2021/03/06 07:35:11;;;;;;;23.47;10.47;;;0.50;80.30;;;;;;5045761;28;20121;-76
2021/03/06 07:37:39;;;;;;;17.25;9.85;;;0.60;80.20;;;;;;5051952;28;20021;-75
2021/03/06 07:40:10;;;;;;;19.90;8.25;;;0.60;80.30;;;;;;5051149;28;20065;-76
2021/03/06 07:42:54;;;;;;;14.45;8.07;;;0.70;80.20;;;;;;5050395;28;20056;-76
2021/03/06 07:45:25;;;;;;;14.65;8.20;;;0.80;80.10;;;;;;5050809;28;20025;-77
2021/03/06 07:48:11;;;;;;;16.08;8.40;;;0.90;80.10;;;;;;5051906;28;20079;-77
2021/03/06 07:50:44;;;;;;;13.73;7.97;;;1.00;80.20;;;;;;5050755;28;20029;-77
2021/03/06 07:53:14;;;;;;;16.13;8.55;;;1.10;79.80;;;;;;5050541;28;20463;-76
2021/03/06 07:55:40;;;;;;;15.55;7.63;;;1.30;79.60;;;;;;5051833;28;20021;-77
2021/03/06 07:58:06;;;;;;;14.95;7.47;;;1.40;79.40;;;;;;5050768;28;20074;-76
2021/03/06 08:00:42;;;;;;;15.02;7.28;;;1.50;79.20;;;;;;5052543;28;20025;-76
2021/03/06 08:03:34;;;;;;;12.50;7.13;;;1.60;78.80;;;;;;5051133;28;20120;-77
2021/03/06 08:06:18;;;;;;;16.00;7.63;;;1.70;78.70;;;;;;5052701;28;20800;-76
2021/03/06 08:08:47;;;;;;;14.30;7.72;;;1.90;78.50;;;;;;5054683;28;20025;-76
2021/03/06 08:11:23;;;;;;;14.32;7.88;;;1.90;78.20;;;;;;5054533;28;20028;-76
2021/03/06 08:13:52;;;;;;;20.15;8.48;;;2.00;78.10;;;;;;5042690;28;20146;-76
2021/03/06 08:16:23;;;;;;;17.67;9.25;;;2.00;78.20;;;;;;5054264;28;20102;-76
2021/03/06 08:18:56;;;;;;;13.02;7.72;;;2.10;78.10;;;;;;5055530;28;20380;-77
2021/03/06 08:21:39;;;;;;;17.48;8.70;;;2.10;78.10;;;;;;5055164;28;20040;-76
2021/03/06 08:24:13;;;;;;;14.88;8.30;;;2.20;78.10;;;;;;5054246;28;20389;-77
2021/03/06 08:26:52;;;;;;;16.45;8.07;;;2.30;78.00;;;;;;5043336;28;20033;-76
2021/03/06 08:29:24;;;;;;;21.13;7.93;;;2.40;77.60;;;;;;5055608;28;20036;-76
2021/03/06 08:32:13;;;;;;;15.30;8.02;;;2.50;77.00;;;;;;5054103;28;20037;-76
2021/03/06 08:34:55;;;;;;;17.92;7.43;;;2.70;76.80;;;;;;5034244;28;20052;-76
2021/03/06 08:37:21;;;;;;;18.92;7.97;;;2.70;76.20;;;;;;5041041;28;20441;-76
2021/03/06 08:39:51;;;;;;;21.60;8.70;;;2.80;76.10;;;;;;5053571;28;20090;-78
2021/03/06 08:42:20;;;;;;;17.42;7.68;;;2.90;76.10;;;;;;5053512;28;20489;-77
2021/03/06 08:44:47;;;;;;;20.33;8.95;;;2.90;75.90;;;;;;5053845;28;20078;-77
2021/03/06 08:47:31;;;;;;;16.13;8.32;;;3.00;75.60;;;;;;5054833;28;20044;-77
2021/03/06 08:49:59;;;;;;;12.88;6.90;;;3.10;75.50;;;;;;5052408;28;20066;-77
2021/03/06 08:52:29;;;;;;;14.38;7.25;;;3.20;75.10;;;;;;5053798;28;20044;-77
2021/03/06 08:54:55;;;;;;;13.15;6.85;;;3.30;74.90;;;;;;5036856;28;20029;-77
2021/03/06 08:57:41;;;;;;;13.75;6.88;;;3.40;74.60;;;;;;5053411;28;20367;-77
2021/03/06 09:00:09;;;;;;;15.15;6.95;;;3.60;74.10;;;;;;5054531;28;20033;-78
2021/03/06 09:02:35;;;;;;;15.98;6.75;;;3.70;72.60;;;;;;5054691;28;20103;-77
2021/03/06 09:05:13;;;;;;;11.60;6.28;;;3.80;72.20;;;;;;5036690;28;20025;-77
2021/03/06 09:07:42;;;;;;;12.75;6.97;;;3.90;71.80;;;;;;5049065;28;20032;-77
2021/03/06 09:10:15;;;;;;;14.48;7.13;;;4.10;71.00;;;;;;5052727;28;20596;-77
2021/03/06 09:12:45;;;;;;;11.68;5.93;;;4.10;70.30;;;;;;5021623;28;20061;-77
2021/03/06 09:15:12;;;;;;;13.43;6.43;;;4.20;70.20;;;;;;5036325;28;20082;-77
2021/03/06 09:17:38;;;;;;;12.80;5.95;;;4.30;69.10;;;;;;5058833;28;20027;-77
2021/03/06 09:20:06;;;;;;;12.73;5.82;;;4.40;68.80;;;;;;5052670;28;20385;-78
2021/03/06 09:22:46;;;;;;;15.30;6.80;;;4.50;68.70;;;;;;5036089;28;20045;-77
2021/03/06 09:25:13;;;;;;;14.45;7.20;;;4.60;67.80;;;;;;5030822;28;20367;-77
2021/03/06 09:27:46;;;;;;;19.02;6.57;;;4.60;66.50;;;;;;5043563;28;20032;-79
2021/03/06 09:30:39;;;;;;;15.27;7.05;;;4.70;67.40;;;;;;5057371;28;20063;-77
2021/03/06 09:33:30;;;;;;;18.30;6.85;;;4.80;66.50;;;;;;5051044;28;20037;-77
2021/03/06 09:35:59;;;;;;;16.35;7.63;;;4.80;66.60;;;;;;5048154;28;20025;-76
2021/03/06 09:38:25;;;;;;;18.30;8.40;;;4.80;66.40;;;;;;5052415;28;20021;-76
2021/03/06 09:40:51;;;;;;;19.08;8.07;;;4.90;66.20;;;;;;5037403;28;20048;-77
2021/03/06 09:43:33;;;;;;;19.27;8.10;;;5.00;65.90;;;;;;5052306;28;20099;-77
2021/03/06 09:45:59;;;;;;;15.98;7.25;;;5.00;65.90;;;;;;5032364;28;20030;-77
2021/03/06 09:48:26;;;;;;;14.90;6.30;;;5.00;65.90;;;;;;5053284;28;20032;-77
2021/03/06 09:50:54;;;;;;;15.85;6.85;;;5.20;65.50;;;;;;5068581;28;20033;-77
2021/03/06 09:53:26;;;;;;;12.57;6.53;;;5.30;65.40;;;;;;5050071;28;20021;-76
2021/03/06 09:56:06;;;;;;;14.30;6.72;;;5.40;65.30;;;;;;5083165;28;20124;-76
2021/03/06 09:58:32;;;;;;;15.48;6.03;;;5.60;65.10;;;;;;5049633;28;20031;-76
2021/03/06 10:01:18;;;;;;;15.13;6.05;;;5.70;63.70;;;;;;5050904;28;20120;-78
2021/03/06 10:03:48;;;;;;;28.75;11.02;;;5.70;63.10;;;;;;5052146;28;20021;-78
2021/03/06 10:06:18;;;;;;;18.40;7.20;;;5.70;62.90;;;;;;5048538;28;20033;-77
2021/03/06 10:08:51;;;;;;;14.50;5.50;;;5.90;62.90;;;;;;5052834;28;20029;-77
2021/03/06 10:11:18;;;;;;;18.33;8.30;;;5.90;62.50;;;;;;5036611;28;20528;-77
2021/03/06 10:13:52;;;;;;;20.00;6.90;;;6.10;63.10;;;;;;5051833;28;20489;-77
2021/03/06 10:16:19;;;;;;;16.05;6.95;;;6.20;62.50;;;;;;5051507;28;20041;-77
2021/03/06 10:18:45;;;;;;;16.83;4.93;;;6.30;62.70;;;;;;5046175;28;20237;-77
2021/03/06 10:21:30;;;;;;;19.52;4.88;;;6.50;62.80;;;;;;5051598;28;20486;-78
2021/03/06 10:24:02;;;;;;;21.10;4.53;;;6.60;62.10;;;;;;5083084;28;20401;-80
2021/03/06 10:26:29;;;;;;;12.10;4.20;;;6.70;61.40;;;;;;5051399;28;20024;-80
2021/03/06 10:29:18;;;;;;;9.63;3.60;;;6.70;62.10;;;;;;5027312;28;20041;-79
2021/03/06 10:31:44;;;;;;;7.05;3.00;;;6.80;61.50;;;;;;5051455;28;20059;-79
2021/03/06 10:34:25;;;;;;;8.73;2.90;;;6.80;61.40;;;;;;5051930;28;20064;-79
2021/03/06 10:37:14;;;;;;;6.65;2.80;;;6.90;60.70;;;;;;5050423;28;20025;-78
2021/03/06 10:40:00;;;;;;;5.28;2.50;;;6.90;60.80;;;;;;5038599;28;20025;-82
2021/03/06 10:42:45;;;;;;;10.73;2.88;;;7.00;60.70;;;;;;5052794;28;20505;-77
2021/03/06 10:45:29;;;;;;;9.07;3.00;;;7.20;60.10;;;;;;5053150;28;20025;-77
2021/03/06 10:47:57;;;;;;;10.00;2.60;;;7.30;59.80;;;;;;5051947;28;20389;-77
2021/03/06 10:50:27;;;;;;;4.47;2.50;;;7.50;59.80;;;;;;5053205;28;20025;-77
2021/03/06 10:53:18;;;;;;;11.65;2.92;;;7.60;59.50;;;;;;5053032;28;20112;-78
2021/03/06 10:55:45;;;;;;;9.00;4.25;;;7.60;58.90;;;;;;5033097;28;20029;-78
2021/03/06 10:58:11;;;;;;;12.20;4.00;;;7.70;58.70;;;;;;5051767;28;20473;-78
2021/03/06 11:00:39;;;;;;;8.23;2.50;;;7.80;58.30;;;;;;5051839;28;20029;-78
2021/03/06 11:03:06;;;;;;;7.80;2.78;;;7.70;58.50;;;;;;5051835;28;20390;-78
2021/03/06 11:05:32;;;;;;;7.97;2.83;;;7.60;58.60;;;;;;5051670;28;20056;-78
2021/03/06 11:08:18;;;;;;;5.57;2.65;;;7.50;57.80;;;;;;5051687;28;20036;-78
2021/03/06 11:10:46;;;;;;;4.13;2.15;;;7.40;58.10;;;;;;5051552;28;20025;-78
2021/03/06 11:13:12;;;;;;;7.90;2.63;;;7.40;58.40;;;;;;5051449;28;20025;-78
2021/03/06 11:15:51;;;;;;;7.05;2.25;;;7.70;58.70;;;;;;5035043;28;20083;-78
2021/03/06 11:18:18;;;;;;;4.60;1.83;;;7.90;57.80;;;;;;5051635;28;20027;-77
2021/03/06 11:20:44;;;;;;;4.82;1.92;;;8.00;57.10;;;;;;5035086;28;20033;-77
2021/03/06 11:23:10;;;;;;;6.53;2.25;;;8.20;57.00;;;;;;5051575;28;20116;-77
2021/03/06 11:25:36;;;;;;;5.95;2.80;;;8.40;56.60;;;;;;5033989;28;20108;-78
2021/03/06 11:28:06;;;;;;;9.07;2.30;;;8.50;56.30;;;;;;5051145;28;20536;-78
2021/03/06 11:30:35;;;;;;;3.25;1.77;;;8.50;55.30;;;;;;5050916;28;20029;-79
2021/03/06 11:33:04;;;;;;;5.82;1.55;;;8.50;53.90;;;;;;5050964;28;20048;-77
2021/03/06 11:35:30;;;;;;;5.32;2.00;;;8.70;54.20;;;;;;5050702;28;20087;-77
2021/03/06 11:37:56;;;;;;;4.20;1.40;;;8.80;54.00;;;;;;5054584;28;20025;-77
2021/03/06 11:40:28;;;;;;;6.95;2.00;;;9.00;54.00;;;;;;5054214;28;20107;-77
2021/03/06 11:42:54;;;;;;;4.25;1.88;;;9.20;53.40;;;;;;5049535;28;20017;-78
2021/03/06 11:45:21;;;;;;;5.97;1.88;;;9.30;52.90;;;;;;5054443;28;20107;-78
2021/03/06 11:47:48;;;;;;;6.82;1.90;;;9.20;53.30;;;;;;5054314;28;20029;-78
2021/03/06 11:50:15;;;;;;;6.30;1.98;;;9.30;53.60;;;;;;5037696;28;20474;-77
2021/03/06 11:52:41;;;;;;;8.13;1.90;;;9.30;52.30;;;;;;5055755;28;20442;-77
2021/03/06 11:55:09;;;;;;;7.22;2.20;;;9.20;51.70;;;;;;5054729;28;20032;-78
2021/03/06 11:57:35;;;;;;;7.22;1.80;;;8.80;52.00;;;;;;5054601;28;20691;-77
2021/03/06 12:00:05;;;;;;;4.93;1.60;;;8.70;53.40;;;;;;5056053;28;20025;-77
2021/03/06 12:02:31;;;;;;;6.00;1.70;;;8.60;53.80;;;;;;5056044;28;20381;-77
2021/03/06 12:04:56;;;;;;;7.55;1.92;;;8.70;54.00;;;;;;5055434;28;20017;-78
2021/03/06 12:07:22;;;;;;;7.03;1.45;;;8.90;53.60;;;;;;5054188;28;20448;-77
2021/03/06 12:09:48;;;;;;;6.95;2.20;;;9.00;53.50;;;;;;5055834;28;20033;-76
2021/03/06 12:12:13;;;;;;;5.75;2.10;;;9.10;52.90;;;;;;5053804;28;20036;-75
2021/03/06 12:14:39;;;;;;;6.88;1.83;;;9.10;52.30;;;;;;5053214;28;20115;-82
2021/03/06 12:17:05;;;;;;;4.05;1.35;;;9.10;53.20;;;;;;5053437;28;20455;-77
2021/03/06 12:19:30;;;;;;;4.63;1.70;;;9.10;53.30;;;;;;5053292;28;20382;-77
2021/03/06 12:21:56;;;;;;;10.68;2.03;;;9.20;52.80;;;;;;5053821;28;20009;-76
2021/03/06 12:24:21;;;;;;;9.82;1.75;;;9.20;51.20;;;;;;5018182;28;20037;-79
2021/03/06 12:26:47;;;;;;;8.65;1.80;;;9.30;51.70;;;;;;5020815;28;20038;-80
2021/03/06 12:29:16;;;;;;;3.78;1.38;;;9.30;50.60;;;;;;5032219;28;20458;-78
2021/03/06 12:31:41;;;;;;;5.07;1.40;;;9.40;51.10;;;;;;5037087;28;20029;-80
2021/03/06 12:34:07;;;;;;;5.95;2.17;;;9.60;51.30;;;;;;5050059;28;20406;-80
2021/03/06 12:36:36;;;;;;;4.03;1.52;;;9.80;50.00;;;;;;5037795;28;20041;-75
2021/03/06 12:39:03;;;;;;;4.95;1.80;;;9.90;49.50;;;;;;5052704;28;20021;-78
2021/03/06 12:41:29;;;;;;;4.38;1.70;;;9.80;49.00;;;;;;5057637;28;20061;-76
2021/03/06 12:43:54;;;;;;;4.78;1.58;;;9.70;50.40;;;;;;5053820;28;20083;-76
2021/03/06 12:46:22;;;;;;;3.58;1.50;;;9.60;50.20;;;;;;5052561;28;20489;-79
2021/03/06 12:48:51;;;;;;;5.72;1.73;;;9.70;51.20;;;;;;5034921;28;20037;-79
2021/03/06 12:51:18;;;;;;;4.30;1.50;;;9.70;50.30;;;;;;5056513;28;20379;-81
2021/03/06 12:53:44;;;;;;;5.53;1.50;;;9.60;50.40;;;;;;5050187;28;20067;-79
2021/03/06 12:56:09;;;;;;;5.35;1.73;;;9.40;50.00;;;;;;5039555;28;20517;-82
2021/03/06 12:58:35;;;;;;;3.45;1.50;;;9.40;50.60;;;;;;5041886;28;20087;-82
2021/03/06 13:01:01;;;;;;;6.57;1.40;;;9.50;50.50;;;;;;5017294;28;20029;-82
2021/03/06 13:03:29;;;;;;;6.57;1.40;;;9.70;50.50;;;;;;5035869;28;20060;-81